KH78

Offshore

Offshore, Louisiana, USA
METAR KH78 201248Z 21008KT 12SM SCT030 30/24 A3006 RMK SEAS 0-1
Observed Flight Rules
Aug-20 @ 12:48 UTC (8 hours ago) Visual Flight Rules
Wind Visibility Clouds
210° at 8 knots 12 miles
  • Scattered at 3,000' AGL
Temperatures Readings
Current 30°C / 86°F
Dewpoint 24°C / 75°F
Humidity 70%
Altimeter 30.06" Hg
Pressure 1018 hPa
Elevation 43
METAR KH78 201248Z 21008KT 12SM SCT030 30/24 A3006 RMK SEAS 0-1
Observed Flight Rules
Aug-20 @ 12:48 UTC
(8 hours ago)
VFR
Wind Visibility
210° at 8 knots 12 miles
Clouds
  • Scattered at 3,000' AGL
Temperature Dewpoint
30°C / 86°F 24°C / 75°F
Humidity Altimeter Pressure
70% 30.06" Hg 1018 hPa